createdAt,value
2017-10-21T19:16:39.199Z,100690.12
2017-10-21T19:22:57.120Z,100685.78
2017-10-21T19:28:22.322Z,100667.52
2017-10-21T19:30:57.848Z,100681.03
2017-10-21T19:33:43.850Z,100677.02
2017-10-21T19:36:20.989Z,100676.42
2017-10-21T19:38:58.270Z,100675.41
2017-10-21T19:41:50.540Z,100673.56
2017-10-21T19:44:32.047Z,100669.78
2017-10-21T19:47:10.616Z,100666.52
2017-10-21T19:49:54.745Z,100662.34
2017-10-21T19:55:45.690Z,100665.53
2017-10-21T19:58:19.406Z,100671.73
2017-10-21T20:00:56.320Z,100669.28
2017-10-21T20:03:36.261Z,100661.35
2017-10-21T20:06:13.380Z,100674.22
2017-10-21T20:08:49.329Z,100663.97
2017-10-21T20:11:28.585Z,100673.80
2017-10-21T20:14:17.490Z,100679.77
2017-10-21T20:16:54.973Z,100680.84
2017-10-21T20:19:33.724Z,100673.03
2017-10-21T20:22:19.924Z,100665.33
2017-10-21T20:24:57.029Z,100670.89
2017-10-21T20:27:39.234Z,100671.12
2017-10-21T20:30:27.717Z,100672.23
2017-10-21T20:38:36.528Z,100680.86
2017-10-21T20:41:17.727Z,100695.50
2017-10-21T20:43:53.216Z,100689.56
2017-10-21T20:46:30.024Z,100693.69
2017-10-21T20:54:35.230Z,100694.84
2017-10-21T20:57:12.638Z,100692.25
2017-10-21T20:59:49.241Z,100691.42
2017-10-21T21:02:23.666Z,100690.73
2017-10-21T21:05:12.293Z,100692.53
2017-10-21T21:10:43.870Z,100703.99
2017-10-21T21:13:28.459Z,100715.13
2017-10-21T21:16:07.018Z,100711.54
2017-10-21T21:19:13.078Z,100710.61
2017-10-21T21:21:46.582Z,100704.98
2017-10-21T21:24:19.200Z,100713.96
2017-10-21T21:26:50.698Z,100708.33
2017-10-21T21:29:23.281Z,100700.73
2017-10-21T21:31:56.100Z,100699.54
2017-10-21T21:34:44.703Z,100710.25
2017-10-21T21:37:22.194Z,100710.36
2017-10-21T21:40:00.393Z,100710.44
2017-10-21T21:42:41.833Z,100711.95
2017-10-21T21:45:23.835Z,100721.48
2017-10-21T21:47:56.124Z,100715.08
2017-10-21T21:50:27.655Z,100727.29
2017-10-21T21:53:01.005Z,100720.21
2017-10-21T21:55:33.229Z,100723.66
2017-10-21T21:58:05.258Z,100725.84
2017-10-21T22:00:42.940Z,100727.59
2017-10-21T22:03:14.608Z,100722.81
2017-10-21T22:05:45.814Z,100722.97
2017-10-21T22:08:17.110Z,100730.63
2017-10-21T22:10:49.048Z,100736.38
2017-10-21T22:13:22.994Z,100733.61
2017-10-21T22:15:55.278Z,100730.86
2017-10-21T22:18:27.589Z,100731.16
2017-10-21T22:20:59.697Z,100727.83
2017-10-21T22:23:33.225Z,100735.37
2017-10-21T22:29:39.265Z,100727.55
2017-10-21T22:32:12.379Z,100722.05
2017-10-21T22:34:48.403Z,100719.91
2017-10-21T22:37:28.306Z,100721.52
2017-10-21T22:40:16.211Z,100713.09
2017-10-21T22:48:43.953Z,100718.02
2017-10-21T22:51:16.328Z,100713.31
2017-10-21T22:53:54.625Z,100706.55
2017-10-21T22:56:28.256Z,100716.91
2017-10-21T22:59:00.944Z,100714.06
2017-10-21T23:01:33.533Z,100696.80
2017-10-21T23:04:47.068Z,100699.77
2017-10-21T23:07:26.959Z,100694.47
2017-10-21T23:10:01.575Z,100695.58
2017-10-21T23:12:49.469Z,100691.80
2017-10-21T23:15:27.250Z,100687.86
2017-10-21T23:17:59.801Z,100699.39
2017-10-21T23:20:32.582Z,100692.00
2017-10-21T23:23:04.095Z,100694.31
2017-10-21T23:25:35.622Z,100690.81
2017-10-21T23:28:09.909Z,100684.45
2017-10-21T23:30:47.839Z,100688.37
2017-10-21T23:33:19.507Z,100681.68
2017-10-21T23:35:51.995Z,100679.80
2017-10-21T23:38:23.824Z,100675.39
2017-10-21T23:40:55.494Z,100668.63
2017-10-21T23:43:28.949Z,100670.91
2017-10-21T23:46:03.240Z,100670.91
2017-10-21T23:48:42.539Z,100671.80
2017-10-21T23:51:18.320Z,100679.48
2017-10-21T23:53:54.128Z,100678.66
2017-10-21T23:56:39.598Z,100678.52
2017-10-21T23:59:11.037Z,100679.24
